Time;durP1;ratioP1;P1;durP2;ratioP2;P2;SDS_P1;SDS_P2;PMS_P1;PMS_P2;Temp;Humidity;BMP_temperature;BMP_pressure;BME280_temperature;BME280_humidity;BME280_pressure;Samples;Min_cycle;Max_cycle;Signal;HPM_P1;HPM_P2
2023/09/03 00:00:40;;;;;;;;;1.00;1.00;;;;;25.18;46.26;101702.72;5080643;28;45328;-62
2023/09/03 00:03:06;;;;;;;;;2.75;2.75;;;;;25.15;46.47;101702.91;5081185;27;45345;-62
2023/09/03 00:05:32;;;;;;;;;1.25;1.25;;;;;25.12;46.53;101705.81;5081007;27;45272;-62
2023/09/03 00:07:58;;;;;;;;;2.25;2.25;;;;;25.11;46.44;101706.75;5080859;27;45320;-62
2023/09/03 00:10:23;;;;;;;;;2.25;2.00;;;;;25.07;46.06;101711.47;5080827;27;45175;-62
2023/09/03 00:12:49;;;;;;;;;1.00;1.00;;;;;25.07;46.42;101710.56;5080854;27;45543;-62
2023/09/03 00:15:15;;;;;;;;;1.25;1.25;;;;;25.04;46.71;101708.09;5080758;27;45308;-62
2023/09/03 00:17:40;;;;;;;;;2.75;2.75;;;;;25.01;46.39;101706.44;5080647;27;46308;-64
2023/09/03 00:20:06;;;;;;;;;4.00;3.50;;;;;25.01;46.77;101719.03;5113788;27;48364;-63
2023/09/03 00:22:31;;;;;;;;;3.00;3.00;;;;;24.98;46.85;101715.56;5081294;27;45269;-62
2023/09/03 00:24:56;;;;;;;;;2.25;1.50;;;;;24.97;46.94;101727.28;5080158;27;47290;-63
2023/09/03 00:27:22;;;;;;;;;1.00;1.00;;;;;24.95;46.60;101725.63;5080503;28;46737;-63
2023/09/03 00:29:47;;;;;;;;;1.50;1.50;;;;;24.94;47.14;101722.09;5080639;27;45298;-63
2023/09/03 00:32:13;;;;;;;;;4.50;2.00;;;;;24.93;46.76;101722.16;5080375;28;45387;-63
2023/09/03 00:34:38;;;;;;;;;2.75;2.00;;;;;24.90;46.98;101712.44;5080624;28;45302;-63
2023/09/03 00:37:03;;;;;;;;;2.75;2.75;;;;;24.91;46.76;101718.72;5080542;27;45314;-63
2023/09/03 00:39:28;;;;;;;;;2.00;2.00;;;;;24.87;46.93;101714.44;5080426;27;45325;-63
2023/09/03 00:41:54;;;;;;;;;1.75;0.75;;;;;24.87;46.80;101712.66;5096352;27;45419;-62
2023/09/03 00:44:20;;;;;;;;;3.00;3.00;;;;;24.79;47.16;101712.22;5080329;27;45180;-62
2023/09/03 00:46:45;;;;;;;;;3.25;3.25;;;;;24.83;46.86;101717.34;5080198;27;45186;-63
2023/09/03 00:49:13;;;;;;;;;2.25;2.25;;;;;24.82;47.11;101723.66;5079465;27;45347;-63
2023/09/03 00:51:39;;;;;;;;;2.50;2.25;;;;;24.80;47.39;101724.72;5080623;27;45282;-62
2023/09/03 00:54:05;;;;;;;;;2.00;2.00;;;;;24.77;47.06;101725.75;5095683;27;45654;-63
2023/09/03 00:56:31;;;;;;;;;2.75;2.25;;;;;24.77;46.98;101725.75;5078782;28;48169;-63
2023/09/03 00:58:59;;;;;;;;;2.00;2.00;;;;;24.74;47.14;101730.44;5080156;28;45382;-63
2023/09/03 01:01:24;;;;;;;;;3.50;2.50;;;;;24.74;47.31;101736.72;5080179;28;45375;-62
2023/09/03 01:03:50;;;;;;;;;3.50;2.50;;;;;24.71;47.45;101738.69;5080228;27;45409;-63
2023/09/03 01:06:15;;;;;;;;;2.00;2.00;;;;;24.68;47.61;101737.06;5080158;27;46064;-63
2023/09/03 01:08:41;;;;;;;;;2.00;2.00;;;;;24.66;47.85;101742.50;5080140;27;45240;-63
2023/09/03 01:11:31;;;;;;;;;2.75;2.00;;;;;24.67;47.69;101746.94;5080249;28;45274;-63
2023/09/03 01:14:09;;;;;;;;;2.00;2.00;;;;;24.64;47.73;101743.50;5080069;27;45425;-63
2023/09/03 01:16:44;;;;;;;;;3.00;2.00;;;;;24.62;47.60;101753.50;5079672;27;45406;-63
2023/09/03 01:19:38;;;;;;;;;4.00;3.00;;;;;24.59;47.55;101732.16;5080076;27;45265;-63
2023/09/03 01:22:48;;;;;;;;;1.00;1.00;;;;;24.58;47.84;101730.44;5108031;27;45400;-62
2023/09/03 01:25:16;;;;;;;;;3.00;3.00;;;;;24.56;47.82;101721.63;5068490;28;45584;-62
2023/09/03 01:27:58;;;;;;;;;2.25;2.00;;;;;24.54;48.03;101713.66;5079632;27;45393;-63
2023/09/03 01:30:24;;;;;;;;;2.25;2.00;;;;;24.50;47.89;101701.34;5079675;28;45279;-63
2023/09/03 01:32:51;;;;;;;;;1.00;1.00;;;;;24.52;47.63;101702.13;5079707;28;45432;-63
2023/09/03 01:35:17;;;;;;;;;3.00;3.00;;;;;24.49;47.85;101694.25;5079736;27;45471;-63
2023/09/03 01:37:42;;;;;;;;;2.00;2.00;;;;;24.49;48.01;101695.09;5112423;27;46195;-63
2023/09/03 01:40:09;;;;;;;;;3.00;3.00;;;;;24.46;47.81;101695.28;5079648;27;45361;-63
2023/09/03 01:42:34;;;;;;;;;3.75;3.75;;;;;24.43;47.71;101686.56;5080516;27;45415;-62
2023/09/03 01:45:00;;;;;;;;;3.00;2.00;;;;;24.43;48.02;101686.56;5079372;27;45397;-63
2023/09/03 01:47:42;;;;;;;;;0.00;0.00;;;;;24.43;48.17;101690.09;5079332;27;46067;-63
2023/09/03 01:50:40;;;;;;;;;1.00;1.00;;;;;24.41;48.12;101685.75;5079596;27;45291;-63
2023/09/03 01:53:17;;;;;;;;;0.75;0.75;;;;;24.39;48.00;101695.72;5078135;28;45434;-63
2023/09/03 01:55:47;;;;;;;;;2.00;2.00;;;;;24.32;47.80;101689.84;5079180;27;45246;-63
2023/09/03 01:58:12;;;;;;;;;3.00;3.00;;;;;24.34;48.25;101690.63;5079631;27;45348;-63
2023/09/03 02:00:41;;;;;;;;;4.00;3.50;;;;;24.33;48.23;101688.91;5097588;27;45365;-63
2023/09/03 02:03:09;;;;;;;;;2.00;2.00;;;;;24.28;48.11;101680.25;5083039;27;45225;-62
2023/09/03 02:05:35;;;;;;;;;2.25;2.25;;;;;24.30;48.53;101684.56;5082911;27;45480;-63
2023/09/03 02:08:01;;;;;;;;;1.00;1.00;;;;;24.30;48.50;101686.38;5082695;27;46126;-63
2023/09/03 02:10:26;;;;;;;;;2.00;2.00;;;;;24.26;48.42;101677.63;5082914;27;45379;-63
2023/09/03 02:12:51;;;;;;;;;2.50;2.00;;;;;24.24;48.21;101684.03;5082834;27;45261;-62
2023/09/03 02:15:17;;;;;;;;;2.50;2.00;;;;;24.24;48.39;101689.41;5082680;27;45397;-63
2023/09/03 02:17:42;;;;;;;;;2.00;2.00;;;;;24.22;48.33;101681.44;5082632;27;46196;-63
2023/09/03 02:20:08;;;;;;;;;2.00;2.00;;;;;24.22;48.46;101686.81;5082485;27;53508;-63
2023/09/03 02:22:34;;;;;;;;;2.50;1.00;;;;;24.20;48.48;101680.69;5098472;27;45322;-63
2023/09/03 02:24:59;;;;;;;;;3.00;1.50;;;;;24.16;48.81;101681.78;5082352;27;45280;-63
2023/09/03 02:27:24;;;;;;;;;1.50;1.50;;;;;24.18;48.63;101694.16;5082310;27;45369;-63
2023/09/03 02:29:50;;;;;;;;;1.25;1.25;;;;;24.17;48.62;101692.44;5082552;27;45459;-63
2023/09/03 02:32:15;;;;;;;;;2.75;2.25;;;;;24.15;48.35;101694.34;5081320;28;45292;-63
2023/09/03 02:34:40;;;;;;;;;2.75;2.00;;;;;24.14;48.70;101697.13;5081050;28;45570;-63
2023/09/03 02:37:06;;;;;;;;;3.00;1.25;;;;;24.11;48.61;101706.22;5082357;27;45885;-63
2023/09/03 02:39:31;;;;;;;;;3.00;3.00;;;;;24.07;48.71;101709.16;5082379;27;45226;-63
2023/09/03 02:41:57;;;;;;;;;2.50;2.50;;;;;24.04;48.64;101714.69;5098088;27;45234;-63
2023/09/03 02:44:23;;;;;;;;;3.00;3.00;;;;;24.05;48.46;101724.47;5082306;28;45521;-63
2023/09/03 02:46:48;;;;;;;;;2.50;2.00;;;;;24.02;48.88;101722.84;5081835;27;46136;-63
2023/09/03 02:49:14;;;;;;;;;1.75;1.75;;;;;24.01;48.85;101721.97;5082181;27;45307;-62
2023/09/03 02:51:40;;;;;;;;;2.50;1.00;;;;;23.99;48.84;101713.13;5082337;27;45496;-63
2023/09/03 02:54:05;;;;;;;;;1.00;1.00;;;;;23.92;48.78;101694.78;5081788;27;45304;-63
2023/09/03 02:56:30;;;;;;;;;2.75;2.75;;;;;23.96;49.04;101709.75;5081894;27;45354;-63
2023/09/03 02:58:56;;;;;;;;;3.00;3.00;;;;;23.93;48.81;101713.47;5081959;27;45318;-63
2023/09/03 03:01:21;;;;;;;;;2.00;2.00;;;;;23.93;49.12;101712.63;5082133;27;45737;-63
2023/09/03 03:03:47;;;;;;;;;3.00;2.00;;;;;23.92;48.99;101721.63;5081953;27;45323;-63
2023/09/03 03:06:13;;;;;;;;;2.00;2.00;;;;;23.89;49.32;101725.31;5115040;27;45617;-63
2023/09/03 03:08:39;;;;;;;;;3.25;2.00;;;;;23.87;48.58;101721.84;5081813;27;45263;-62
2023/09/03 03:11:17;;;;;;;;;2.75;2.25;;;;;23.88;49.47;101728.09;5081180;27;45272;-63
2023/09/03 03:13:44;;;;;;;;;1.50;1.50;;;;;23.86;49.04;101725.47;5080665;28;45535;-63
2023/09/03 03:16:11;;;;;;;;;2.00;2.00;;;;;23.83;49.18;101717.59;5081423;27;46310;-63
2023/09/03 03:18:38;;;;;;;;;2.25;2.25;;;;;23.81;48.91;101725.72;5081701;27;45464;-63
2023/09/03 03:21:17;;;;;;;;;2.25;2.25;;;;;23.76;48.96;101725.13;5081690;27;45277;-63
2023/09/03 03:23:46;;;;;;;;;4.00;3.00;;;;;23.80;49.15;101737.41;5081742;28;45215;-63
2023/09/03 03:26:11;;;;;;;;;2.50;2.00;;;;;23.77;49.32;101734.03;5081139;27;45430;-63
2023/09/03 03:28:36;;;;;;;;;2.50;2.50;;;;;23.77;49.32;101732.22;5081638;27;45269;-63
2023/09/03 03:31:12;;;;;;;;;3.00;3.00;;;;;23.76;49.41;101743.03;5081315;28;45390;-63
2023/09/03 03:33:41;;;;;;;;;3.00;3.00;;;;;23.74;49.45;101744.94;5081601;28;45414;-63
2023/09/03 03:36:07;;;;;;;;;4.50;3.00;;;;;23.72;49.51;101744.16;5113989;27;46096;-63
2023/09/03 03:38:33;;;;;;;;;2.00;2.00;;;;;23.69;49.44;101748.72;5114243;27;46077;-63
2023/09/03 03:41:11;;;;;;;;;3.50;2.00;;;;;23.69;49.72;101755.91;5081174;27;45342;-63
2023/09/03 03:43:38;;;;;;;;;2.00;2.00;;;;;23.67;49.63;101750.63;5081145;27;45520;-63
2023/09/03 03:46:05;;;;;;;;;2.00;2.00;;;;;23.65;49.47;101762.41;5080838;27;46313;-63
2023/09/03 03:48:30;;;;;;;;;3.00;3.00;;;;;23.65;49.45;101760.56;5113971;27;45382;-63
2023/09/03 03:50:56;;;;;;;;;2.50;2.50;;;;;23.64;49.46;101758.81;5081429;27;45838;-63
2023/09/03 03:53:22;;;;;;;;;1.00;1.00;;;;;23.64;49.60;101760.66;5081055;27;45445;-63
2023/09/03 03:55:47;;;;;;;;;2.75;2.75;;;;;23.62;49.55;101759.84;5081118;27;45145;-63
2023/09/03 03:58:13;;;;;;;;;3.00;3.00;;;;;23.59;49.57;101763.56;5079763;28;45259;-63
2023/09/03 04:00:38;;;;;;;;;3.25;3.25;;;;;23.58;49.88;101769.88;5081002;27;45314;-63
2023/09/03 04:03:03;;;;;;;;;4.00;2.50;;;;;23.58;49.65;101788.66;5114223;27;45228;-63
2023/09/03 04:05:29;;;;;;;;;3.50;3.50;;;;;23.55;49.79;101778.09;5080984;27;46332;-63
2023/09/03 04:07:54;;;;;;;;;4.25;4.00;;;;;23.55;49.75;101794.19;5081093;27;45258;-63
2023/09/03 04:10:20;;;;;;;;;5.00;3.25;;;;;23.53;49.76;101783.56;5080983;27;45292;-63
2023/09/03 04:12:45;;;;;;;;;2.75;2.50;;;;;23.49;49.68;101789.16;5080923;27;45256;-63
2023/09/03 04:15:11;;;;;;;;;3.50;3.50;;;;;23.49;49.97;101791.84;5113523;27;47348;-63
2023/09/03 04:17:36;;;;;;;;;5.00;4.00;;;;;23.45;49.76;101787.59;5080959;28;45349;-63
2023/09/03 04:20:01;;;;;;;;;4.00;2.50;;;;;23.47;49.63;101791.03;5080859;28;45369;-63
2023/09/03 04:22:27;;;;;;;;;4.00;2.00;;;;;23.45;50.02;101787.59;5080181;27;45387;-63
2023/09/03 04:24:52;;;;;;;;;3.50;2.75;;;;;23.44;49.93;101793.91;5079562;27;46951;-63
2023/09/03 04:27:17;;;;;;;;;3.00;3.00;;;;;23.42;50.19;101785.06;5080842;27;45302;-63
2023/09/03 04:29:42;;;;;;;;;3.00;3.00;;;;;23.40;49.98;101789.66;5080481;27;45573;-63
2023/09/03 04:32:08;;;;;;;;;3.75;2.25;;;;;23.37;50.03;101785.31;5080427;28;51477;-63
2023/09/03 04:34:33;;;;;;;;;2.00;2.00;;;;;23.37;50.17;101798.72;5080038;28;54513;-63
2023/09/03 04:36:58;;;;;;;;;3.00;2.00;;;;;23.33;50.20;101795.31;5080409;27;46584;-63
2023/09/03 04:39:23;;;;;;;;;2.75;2.75;;;;;23.32;50.03;101804.31;5080608;27;45383;-63
2023/09/03 04:41:49;;;;;;;;;3.00;2.75;;;;;23.32;50.02;101808.78;5080452;27;45177;-63
2023/09/03 04:44:14;;;;;;;;;4.00;4.00;;;;;23.31;50.01;101818.66;5078989;28;47128;-63
2023/09/03 04:46:39;;;;;;;;;4.00;4.00;;;;;23.30;50.20;101819.59;5078875;28;45449;-63
2023/09/03 04:49:05;;;;;;;;;3.25;2.75;;;;;23.28;50.17;101816.16;5080331;27;45433;-63
2023/09/03 04:51:30;;;;;;;;;2.00;2.00;;;;;23.26;50.19;101809.09;5080528;27;45156;-63
2023/09/03 04:53:55;;;;;;;;;2.00;2.00;;;;;23.27;50.02;101816.19;5080070;27;45231;-63
2023/09/03 04:56:21;;;;;;;;;2.00;2.00;;;;;23.23;50.50;101807.44;5080266;27;45232;-63
2023/09/03 04:58:46;;;;;;;;;5.00;3.00;;;;;23.22;50.22;101803.06;5080297;27;45505;-63
2023/09/03 05:01:16;;;;;;;;;3.50;3.00;;;;;23.21;50.16;101802.16;5080271;27;45255;-63
2023/09/03 05:03:42;;;;;;;;;2.00;2.00;;;;;23.21;50.16;101801.31;5112955;27;47943;-63
2023/09/03 05:06:15;;;;;;;;;2.00;2.00;;;;;23.21;50.23;101799.50;5080239;27;45456;-63
2023/09/03 05:08:41;;;;;;;;;3.75;3.75;;;;;23.19;50.68;101798.72;5080394;27;45392;-63
2023/09/03 05:11:12;;;;;;;;;3.00;3.00;;;;;23.17;50.55;101791.69;5079763;27;45273;-63
2023/09/03 05:13:38;;;;;;;;;4.75;4.75;;;;;23.15;50.35;101799.78;5079784;27;45390;-63
2023/09/03 05:16:04;;;;;;;;;3.75;2.50;;;;;23.14;50.52;101811.41;5078328;28;45308;-63
2023/09/03 05:18:29;;;;;;;;;2.00;2.00;;;;;23.13;50.43;101803.47;5080587;28;45332;-63
2023/09/03 05:20:55;;;;;;;;;3.00;3.00;;;;;23.10;50.52;101807.16;5079857;27;45536;-63
2023/09/03 05:23:20;;;;;;;;;1.50;1.50;;;;;23.10;50.76;101809.00;5080093;27;46290;-63
2023/09/03 05:25:46;;;;;;;;;3.75;3.75;;;;;23.09;50.28;101820.66;5079594;27;45451;-63
2023/09/03 05:28:12;;;;;;;;;4.00;4.00;;;;;23.08;50.64;101821.59;5080304;27;45290;-63
2023/09/03 05:30:38;;;;;;;;;3.00;2.50;;;;;23.06;50.57;101832.41;5079623;28;45328;-63
2023/09/03 05:33:03;;;;;;;;;2.00;2.00;;;;;23.05;50.41;101834.19;5079579;27;45428;-63
2023/09/03 05:35:29;;;;;;;;;5.25;5.25;;;;;23.04;50.85;101828.91;5082129;27;45263;-63
2023/09/03 05:37:54;;;;;;;;;2.00;2.00;;;;;23.03;50.67;101828.06;5083319;27;45232;-63
2023/09/03 05:40:19;;;;;;;;;2.00;2.00;;;;;23.01;50.62;101827.25;5083265;27;45510;-63
2023/09/03 05:42:45;;;;;;;;;4.00;2.50;;;;;23.02;50.83;101829.00;5083095;27;48269;-63
2023/09/03 05:45:10;;;;;;;;;4.00;3.00;;;;;23.00;50.69;101830.88;5083492;27;45260;-63
2023/09/03 05:47:35;;;;;;;;;5.50;2.75;;;;;23.01;50.69;101832.63;5083247;27;45367;-63
2023/09/03 05:50:01;;;;;;;;;2.75;2.75;;;;;23.01;50.72;101834.44;5083209;27;45430;-63
2023/09/03 05:52:26;;;;;;;;;3.25;3.25;;;;;22.98;50.44;101835.47;5081727;28;46912;-63
2023/09/03 05:54:51;;;;;;;;;3.00;3.00;;;;;22.98;50.73;101848.88;5082627;27;45156;-63
2023/09/03 05:57:17;;;;;;;;;3.25;3.25;;;;;22.99;50.89;101855.09;5083192;27;45588;-63
2023/09/03 05:59:43;;;;;;;;;3.00;3.00;;;;;22.98;50.86;101858.69;5115704;27;45268;-63
2023/09/03 06:02:08;;;;;;;;;2.75;2.75;;;;;22.98;50.60;101856.03;5082370;28;58406;-63
2023/09/03 06:04:33;;;;;;;;;3.50;2.00;;;;;22.97;51.38;101863.22;5082845;27;51283;-63
2023/09/03 06:06:58;;;;;;;;;3.00;3.00;;;;;22.97;51.19;101865.03;5083122;27;45247;-63
2023/09/03 06:09:24;;;;;;;;;5.50;2.50;;;;;22.98;51.03;101874.78;5083133;27;45556;-63
2023/09/03 06:11:49;;;;;;;;;2.75;2.75;;;;;22.92;51.00;101867.94;5082412;27;48346;-63
2023/09/03 06:14:15;;;;;;;;;1.00;1.00;;;;;22.98;50.88;101874.78;5082595;27;45337;-63
2023/09/03 06:16:41;;;;;;;;;3.00;3.00;;;;;22.98;51.24;101874.78;5082622;27;45457;-63
2023/09/03 06:19:06;;;;;;;;;3.75;3.75;;;;;22.95;51.11;101883.84;5115687;27;45441;-63
2023/09/03 06:21:31;;;;;;;;;3.25;3.25;;;;;22.99;51.10;101893.50;5082489;27;46035;-63
2023/09/03 06:23:57;;;;;;;;;2.00;2.00;;;;;22.95;51.11;101888.34;5082721;27;45337;-63
2023/09/03 06:26:22;;;;;;;;;3.75;3.75;;;;;22.96;51.50;101888.25;5082363;27;46014;-62
2023/09/03 06:28:47;;;;;;;;;5.00;3.75;;;;;23.00;51.23;101889.00;5082662;27;45394;-62
2023/09/03 06:31:13;;;;;;;;;3.00;3.00;;;;;23.02;51.25;101892.47;5082038;27;46106;-63
2023/09/03 06:33:38;;;;;;;;;2.75;2.75;;;;;23.02;51.59;101893.34;5082495;28;45333;-62
2023/09/03 06:36:04;;;;;;;;;5.00;3.25;;;;;23.06;51.13;101888.69;5082644;27;45412;-63
2023/09/03 06:38:29;;;;;;;;;3.00;2.50;;;;;23.08;51.31;101891.28;5082595;27;45227;-62
2023/09/03 06:40:55;;;;;;;;;3.00;3.00;;;;;23.09;51.32;101893.88;5082100;27;45260;-63
2023/09/03 06:43:20;;;;;;;;;3.00;3.00;;;;;23.11;51.38;101896.53;5082262;27;45223;-62
2023/09/03 06:45:46;;;;;;;;;3.00;3.00;;;;;23.12;51.16;101901.78;5081090;27;45659;-62
2023/09/03 06:48:11;;;;;;;;;5.00;3.50;;;;;23.14;51.30;101904.41;5082168;27;45463;-62
2023/09/03 06:50:40;;;;;;;;;7.00;5.50;;;;;23.18;51.55;101919.41;5081066;27;47900;-63
2023/09/03 06:53:05;;;;;;;;;4.50;4.50;;;;;23.14;51.34;101913.28;5082193;27;45398;-63
2023/09/03 06:55:31;;;;;;;;;2.50;2.50;;;;;23.21;51.38;101921.97;5081366;28;53627;-63
2023/09/03 06:57:56;;;;;;;;;2.75;2.75;;;;;23.22;51.42;101931.75;5082204;27;45374;-62
2023/09/03 07:00:22;;;;;;;;;2.00;2.00;;;;;23.23;51.59;101937.97;5081728;28;45698;-63
2023/09/03 07:02:47;;;;;;;;;10.50;8.75;;;;;23.25;51.46;101931.59;5081965;27;45374;-62
2023/09/03 07:05:14;;;;;;;;;6.00;6.00;;;;;23.30;51.52;101939.41;5114889;27;45318;-62
2023/09/03 07:07:39;;;;;;;;;3.00;3.00;;;;;23.30;51.21;101931.38;5082107;28;45193;-62
2023/09/03 07:10:05;;;;;;;;;4.50;4.50;;;;;23.33;51.41;101934.78;5081522;27;45425;-63
2023/09/03 07:12:30;;;;;;;;;2.00;2.00;;;;;23.36;51.51;101939.09;5082117;28;45211;-63
2023/09/03 07:14:55;;;;;;;;;2.75;2.75;;;;;23.38;51.39;101947.94;5081491;27;45227;-63
2023/09/03 07:17:21;;;;;;;;;3.50;3.00;;;;;23.42;51.54;101940.59;5082054;28;45453;-62
2023/09/03 07:19:46;;;;;;;;;3.00;3.00;;;;;23.44;51.57;101947.63;5081157;28;57508;-63
2023/09/03 07:22:11;;;;;;;;;4.25;4.00;;;;;23.46;51.63;101940.38;5097202;27;53790;-62
2023/09/03 07:24:37;;;;;;;;;3.25;3.25;;;;;23.49;51.70;101944.72;5081721;27;45245;-62
2023/09/03 07:27:02;;;;;;;;;4.00;4.00;;;;;23.50;51.74;101943.78;5081655;27;45169;-62
2023/09/03 07:29:27;;;;;;;;;2.75;2.75;;;;;23.56;51.45;101945.28;5081403;27;45231;-62
2023/09/03 07:31:53;;;;;;;;;4.25;3.00;;;;;23.55;51.73;101949.78;5081365;28;49144;-62
2023/09/03 07:34:18;;;;;;;;;3.00;3.00;;;;;23.60;51.51;101939.69;5081569;28;45478;-62
2023/09/03 07:36:43;;;;;;;;;2.00;2.00;;;;;23.63;51.54;101947.56;5081512;27;45403;-62
2023/09/03 07:39:10;;;;;;;;;5.00;3.75;;;;;23.66;51.50;101936.69;5081197;27;49348;-63
2023/09/03 07:41:36;;;;;;;;;3.00;3.00;;;;;23.69;51.63;101931.16;5081188;27;45350;-62
2023/09/03 07:44:02;;;;;;;;;7.50;5.50;;;;;23.71;51.83;101925.75;5081287;27;45405;-64
2023/09/03 07:46:28;;;;;;;;;2.00;2.00;;;;;23.76;51.52;101925.50;5080946;28;45394;-63
2023/09/03 07:48:53;;;;;;;;;8.00;5.50;;;;;23.80;51.25;101916.34;5081118;28;45385;-62
2023/09/03 07:51:19;;;;;;;;;3.50;2.50;;;;;23.84;51.47;101923.28;5081374;28;45420;-62
2023/09/03 07:53:47;;;;;;;;;6.25;4.25;;;;;23.87;51.63;101920.44;5081164;28;45219;-63
2023/09/03 07:56:13;;;;;;;;;5.50;4.50;;;;;23.91;51.39;101919.38;5081096;27;45371;-61
2023/09/03 07:58:38;;;;;;;;;3.00;3.00;;;;;23.95;51.62;101918.25;5079347;28;46184;-61
2023/09/03 08:01:04;;;;;;;;;3.00;3.00;;;;;24.01;51.74;101915.25;5079569;28;45879;-63
2023/09/03 08:03:36;;;;;;;;;1.75;1.75;;;;;24.06;51.66;101914.13;5079983;28;45422;-64
2023/09/03 08:06:03;;;;;;;;;4.00;2.75;;;;;24.10;51.41;101913.91;5081146;27;45222;-63
2023/09/03 08:08:28;;;;;;;;;2.00;2.00;;;;;24.15;51.73;101919.00;5080647;27;46473;-63
2023/09/03 08:10:57;;;;;;;;;3.25;2.75;;;;;24.19;51.56;101923.28;5080730;28;45235;-63
2023/09/03 08:13:23;;;;;;;;;3.25;3.00;;;;;24.23;51.61;101919.47;5080989;28;45326;-63
2023/09/03 08:15:49;;;;;;;;;2.00;2.00;;;;;24.27;51.31;101910.31;5079146;28;45382;-63
2023/09/03 08:18:15;;;;;;;;;4.00;3.00;;;;;24.30;51.35;101910.16;5080815;28;46249;-63
2023/09/03 08:20:41;;;;;;;;;3.00;2.00;;;;;24.37;51.55;101916.06;5080816;28;45324;-61
2023/09/03 08:23:09;;;;;;;;;4.00;3.00;;;;;24.41;51.48;101911.38;5080634;28;45278;-61
2023/09/03 08:25:34;;;;;;;;;5.00;3.00;;;;;24.47;51.56;101917.28;5080541;27;45470;-61
2023/09/03 08:28:00;;;;;;;;;4.75;3.00;;;;;24.51;51.49;101907.25;5080450;28;46084;-61
2023/09/03 08:30:25;;;;;;;;;4.00;3.00;;;;;24.58;51.28;101919.38;5080423;28;46496;-62
2023/09/03 08:32:50;;;;;;;;;3.75;3.00;;;;;24.64;51.62;101920.84;5080426;28;45310;-61
2023/09/03 08:35:16;;;;;;;;;4.00;4.00;;;;;24.71;51.15;101916.06;5080463;27;47938;-63
2023/09/03 08:37:41;;;;;;;;;1.00;1.00;;;;;24.76;51.15;101920.22;5080504;27;46043;-63
2023/09/03 08:40:07;;;;;;;;;3.75;3.25;;;;;24.80;51.33;101910.16;5080051;28;52341;-63
2023/09/03 08:42:34;;;;;;;;;1.75;1.75;;;;;24.89;51.43;101915.03;5080632;27;45382;-63
2023/09/03 08:45:03;;;;;;;;;3.50;3.50;;;;;24.95;51.23;101911.97;5080193;28;45413;-61
2023/09/03 08:47:31;;;;;;;;;3.50;3.00;;;;;25.00;51.55;101911.72;5080201;27;45247;-63
2023/09/03 08:49:58;;;;;;;;;3.00;3.00;;;;;25.07;51.14;101913.13;5080186;27;45410;-61
2023/09/03 08:52:26;;;;;;;;;4.00;4.00;;;;;25.15;51.29;101924.28;5080371;27;45355;-63
2023/09/03 08:54:52;;;;;;;;;3.75;3.75;;;;;25.23;51.53;101923.88;5079770;27;45472;-62
2023/09/03 08:57:17;;;;;;;;;5.00;3.00;;;;;25.29;51.41;101915.41;5080021;27;46191;-61
2023/09/03 08:59:43;;;;;;;;;6.50;4.00;;;;;25.37;51.08;101911.44;5080192;27;45263;-61
2023/09/03 09:02:14;;;;;;;;;3.00;3.00;;;;;25.44;51.23;101908.31;5080340;27;45398;-61
2023/09/03 09:04:40;;;;;;;;;3.00;3.00;;;;;25.52;51.56;101907.00;5080225;28;45837;-61
2023/09/03 09:07:06;;;;;;;;;5.00;5.00;;;;;25.59;51.39;101914.59;5080280;27;45208;-63
2023/09/03 09:09:32;;;;;;;;;5.00;3.75;;;;;25.70;51.31;101919.38;5081143;27;45185;-61
2023/09/03 09:12:24;;;;;;;;;4.00;4.00;;;;;25.80;50.77;101925.91;5083881;27;45280;-61
2023/09/03 09:14:59;;;;;;;;;3.75;3.00;;;;;25.90;51.18;101928.03;5099095;27;46413;-61
2023/09/03 09:17:24;;;;;;;;;4.00;3.00;;;;;25.98;51.37;101927.59;5083750;27;45260;-61
2023/09/03 09:19:49;;;;;;;;;3.50;3.50;;;;;26.09;50.58;101931.41;5083522;27;45222;-61
2023/09/03 09:22:15;;;;;;;;;4.50;4.50;;;;;26.20;50.87;101930.75;5083748;27;45204;-61
2023/09/03 09:24:42;;;;;;;;;5.00;2.00;;;;;26.31;50.34;101923.81;5083420;27;45290;-61
2023/09/03 09:27:16;;;;;;;;;4.00;4.00;;;;;26.44;50.39;101930.19;5081920;28;46479;-61
2023/09/03 09:29:41;;;;;;;;;4.75;4.75;;;;;26.56;50.62;101933.91;5095355;27;45276;-62
2023/09/03 09:32:20;;;;;;;;;6.25;3.75;;;;;26.69;50.77;101932.19;5063134;28;45252;-61
2023/09/03 09:34:46;;;;;;;;;3.50;3.00;;;;;26.85;50.35;101937.47;5070047;28;45332;-64
2023/09/03 09:37:13;;;;;;;;;5.00;5.00;;;;;26.99;50.40;101933.88;5083116;27;46311;-61
2023/09/03 09:39:46;;;;;;;;;4.00;4.00;;;;;27.15;50.33;101939.13;5083331;28;45252;-62
2023/09/03 09:42:18;;;;;;;;;3.50;3.00;;;;;27.31;50.56;101943.50;5083146;28;45338;-62
2023/09/03 09:44:53;;;;;;;;;3.75;3.75;;;;;27.52;49.85;101950.22;5083100;27;45410;-62
2023/09/03 09:47:20;;;;;;;;;4.00;4.00;;;;;27.71;49.65;101947.13;5082963;27;45285;-63
2023/09/03 09:49:45;;;;;;;;;4.25;3.75;;;;;27.94;50.08;101946.50;5083165;28;45350;-61
2023/09/03 09:52:12;;;;;;;;;3.75;3.00;;;;;28.15;50.09;101941.47;5082958;27;45366;-61
2023/09/03 09:54:41;;;;;;;;;3.75;3.75;;;;;28.44;49.44;101946.66;5083094;27;45227;-61
2023/09/03 09:57:21;;;;;;;;;2.50;2.50;;;;;28.71;49.95;101949.25;5081219;28;48452;-61
2023/09/03 10:00:00;;;;;;;;;4.50;4.50;;;;;28.97;49.52;101943.78;5081315;27;45501;-61
2023/09/03 10:02:25;;;;;;;;;5.00;4.00;;;;;29.25;49.40;101952.53;5083111;27;45278;-62
2023/09/03 10:04:52;;;;;;;;;7.25;6.00;;;;;29.47;49.18;101941.84;5082089;27;45568;-61
2023/09/03 10:07:18;;;;;;;;;3.50;3.50;;;;;29.71;49.14;101942.78;5080921;28;47208;-61
2023/09/03 10:09:45;;;;;;;;;5.25;4.00;;;;;29.91;48.65;101942.16;5082054;27;45255;-61
2023/09/03 10:12:11;;;;;;;;;5.00;4.50;;;;;30.12;48.95;101933.31;5082392;27;45467;-63
2023/09/03 10:14:37;;;;;;;;;4.50;3.00;;;;;30.32;48.04;101927.16;5080456;28;45660;-63
2023/09/03 10:17:05;;;;;;;;;4.25;4.25;;;;;30.56;47.98;101939.75;5081979;27;46334;-63
2023/09/03 10:19:42;;;;;;;;;3.25;3.25;;;;;30.78;47.92;101938.88;5097802;27;45257;-61
2023/09/03 10:22:14;;;;;;;;;3.75;3.50;;;;;31.03;47.87;101938.72;5082626;28;45314;-61
2023/09/03 10:24:41;;;;;;;;;4.25;4.25;;;;;31.25;46.91;101932.38;5082257;27;45478;-63
2023/09/03 10:27:12;;;;;;;;;4.25;4.25;;;;;31.49;47.09;101934.88;5082103;27;45258;-63
2023/09/03 10:29:40;;;;;;;;;2.00;2.00;;;;;31.72;47.15;101930.22;5080365;28;45453;-63
2023/09/03 10:32:07;;;;;;;;;3.25;3.25;;;;;31.99;46.99;101936.97;5081980;27;45339;-63
2023/09/03 10:34:36;;;;;;;;;3.25;2.50;;;;;32.19;46.12;101927.09;5082115;28;45233;-61
2023/09/03 10:37:08;;;;;;;;;3.25;3.25;;;;;32.50;46.21;101942.53;5082129;27;45318;-63
2023/09/03 10:39:35;;;;;;;;;2.25;2.25;;;;;32.74;45.71;101944.94;5082215;27;45496;-63
2023/09/03 10:42:16;;;;;;;;;5.50;4.50;;;;;33.03;45.82;101952.31;5080761;28;45459;-63
2023/09/03 10:44:43;;;;;;;;;4.50;2.75;;;;;33.26;45.32;101944.75;5069171;28;45587;-61
2023/09/03 10:47:11;;;;;;;;;2.50;2.00;;;;;33.51;45.25;101945.19;5081963;27;46283;-63
2023/09/03 10:49:41;;;;;;;;;3.25;2.75;;;;;33.75;44.98;101949.34;5082290;27;45327;-61
2023/09/03 10:52:28;;;;;;;;;2.00;1.75;;;;;34.03;44.86;101947.63;5082193;28;45343;-61
2023/09/03 10:55:14;;;;;;;;;2.00;2.00;;;;;34.27;44.59;101955.28;5081627;28;45532;-61
2023/09/03 10:57:40;;;;;;;;;3.00;3.00;;;;;34.50;44.09;101946.75;5082070;27;45445;-61
2023/09/03 11:00:08;;;;;;;;;3.75;2.75;;;;;34.71;44.15;101946.50;5114753;27;46039;-61
2023/09/03 11:02:35;;;;;;;;;2.50;2.50;;;;;34.97;44.14;101952.13;5082131;27;45385;-61
2023/09/03 11:05:09;;;;;;;;;0.25;0.25;;;;;35.21;43.48;101947.06;5081738;28;45235;-61
2023/09/03 11:07:35;;;;;;;;;2.00;2.00;;;;;35.42;43.71;101944.03;5081810;28;46273;-61
2023/09/03 11:10:27;;;;;;;;;3.00;2.75;;;;;35.72;42.84;101945.47;5081638;27;45189;-60
2023/09/03 11:12:52;;;;;;;;;3.00;3.00;;;;;35.94;42.89;101937.81;5097906;27;45475;-61
2023/09/03 11:15:19;;;;;;;;;4.25;3.00;;;;;36.20;42.82;101932.34;5081539;27;45620;-61
2023/09/03 11:17:53;;;;;;;;;7.00;6.00;;;;;36.46;42.65;101927.88;5081738;27;45212;-62
2023/09/03 11:20:28;;;;;;;;;4.00;3.00;;;;;36.75;42.11;101935.66;5081698;27;45304;-61
2023/09/03 11:22:55;;;;;;;;;2.75;2.75;;;;;36.98;41.72;101933.19;5081672;27;45510;-61
2023/09/03 11:25:37;;;;;;;;;3.00;3.00;;;;;37.21;41.27;101930.66;5081287;27;45193;-61